sensor_id;sensor_type;location;lat;lon;timestamp;P1;durP1;ratioP1;P2;durP2;ratioP2
12124;SDS011;6126;57.908;16.490;2022-09-11T00:01:23;2.30;;;2.10;;
12124;SDS011;6126;57.908;16.490;2022-09-11T00:03:51;2.75;;;2.55;;
12124;SDS011;6126;57.908;16.490;2022-09-11T00:06:19;2.50;;;2.20;;
12124;SDS011;6126;57.908;16.490;2022-09-11T00:08:45;3.80;;;2.63;;
12124;SDS011;6126;57.908;16.490;2022-09-11T00:11:16;2.30;;;2.03;;
12124;SDS011;6126;57.908;16.490;2022-09-11T00:13:46;2.80;;;2.50;;
12124;SDS011;6126;57.908;16.490;2022-09-11T00:16:20;3.45;;;2.58;;
12124;SDS011;6126;57.908;16.490;2022-09-11T00:18:54;4.85;;;2.85;;
12124;SDS011;6126;57.908;16.490;2022-09-11T00:21:24;3.13;;;2.45;;
12124;SDS011;6126;57.908;16.490;2022-09-11T00:23:51;3.90;;;2.75;;
12124;SDS011;6126;57.908;16.490;2022-09-11T00:26:17;3.95;;;2.78;;
12124;SDS011;6126;57.908;16.490;2022-09-11T00:28:44;3.22;;;2.72;;
12124;SDS011;6126;57.908;16.490;2022-09-11T00:31:12;3.55;;;2.60;;
12124;SDS011;6126;57.908;16.490;2022-09-11T00:33:43;4.20;;;2.83;;
12124;SDS011;6126;57.908;16.490;2022-09-11T00:36:10;2.88;;;2.50;;
12124;SDS011;6126;57.908;16.490;2022-09-11T00:38:40;4.90;;;2.97;;
12124;SDS011;6126;57.908;16.490;2022-09-11T00:41:09;2.85;;;2.55;;
12124;SDS011;6126;57.908;16.490;2022-09-11T00:51:56;3.83;;;2.88;;
12124;SDS011;6126;57.908;16.490;2022-09-11T00:54:30;3.22;;;2.92;;
12124;SDS011;6126;57.908;16.490;2022-09-11T00:57:05;4.68;;;2.85;;
12124;SDS011;6126;57.908;16.490;2022-09-11T00:59:34;6.25;;;2.92;;
12124;SDS011;6126;57.908;16.490;2022-09-11T01:02:04;2.72;;;2.53;;
12124;SDS011;6126;57.908;16.490;2022-09-11T01:04:34;3.35;;;2.85;;
12124;SDS011;6126;57.908;16.490;2022-09-11T01:06:59;2.58;;;2.38;;
12124;SDS011;6126;57.908;16.490;2022-09-11T01:09:27;3.40;;;3.08;;
12124;SDS011;6126;57.908;16.490;2022-09-11T01:12:15;2.88;;;2.50;;
12124;SDS011;6126;57.908;16.490;2022-09-11T01:29:18;3.60;;;1.98;;
12124;SDS011;6126;57.908;16.490;2022-09-11T01:31:30;3.03;;;2.83;;
12124;SDS011;6126;57.908;16.490;2022-09-11T01:34:13;2.97;;;2.13;;
12124;SDS011;6126;57.908;16.490;2022-09-11T01:36:54;3.22;;;2.80;;
12124;SDS011;6126;57.908;16.490;2022-09-11T01:39:35;3.65;;;3.05;;
12124;SDS011;6126;57.908;16.490;2022-09-11T01:42:09;3.05;;;2.75;;
12124;SDS011;6126;57.908;16.490;2022-09-11T01:44:45;2.58;;;2.38;;
12124;SDS011;6126;57.908;16.490;2022-09-11T01:47:17;3.40;;;2.70;;
12124;SDS011;6126;57.908;16.490;2022-09-11T01:49:50;2.63;;;2.38;;
12124;SDS011;6126;57.908;16.490;2022-09-11T01:52:31;2.80;;;2.58;;
12124;SDS011;6126;57.908;16.490;2022-09-11T01:55:18;2.13;;;1.92;;
12124;SDS011;6126;57.908;16.490;2022-09-11T01:58:25;5.47;;;3.10;;
12124;SDS011;6126;57.908;16.490;2022-09-11T02:01:08;2.53;;;2.30;;
12124;SDS011;6126;57.908;16.490;2022-09-11T02:03:47;3.00;;;2.70;;
12124;SDS011;6126;57.908;16.490;2022-09-11T02:06:18;2.78;;;2.55;;
12124;SDS011;6126;57.908;16.490;2022-09-11T02:08:53;3.40;;;2.47;;
12124;SDS011;6126;57.908;16.490;2022-09-11T02:11:28;3.15;;;2.53;;
12124;SDS011;6126;57.908;16.490;2022-09-11T02:19:17;3.95;;;3.05;;
12124;SDS011;6126;57.908;16.490;2022-09-11T02:21:49;7.13;;;2.75;;
12124;SDS011;6126;57.908;16.490;2022-09-11T02:24:15;3.50;;;2.53;;
12124;SDS011;6126;57.908;16.490;2022-09-11T02:26:44;3.92;;;3.00;;
12124;SDS011;6126;57.908;16.490;2022-09-11T02:29:17;3.45;;;2.95;;
12124;SDS011;6126;57.908;16.490;2022-09-11T02:31:45;6.90;;;2.67;;
12124;SDS011;6126;57.908;16.490;2022-09-11T02:34:12;3.75;;;2.95;;
12124;SDS011;6126;57.908;16.490;2022-09-11T02:39:54;2.90;;;2.60;;
12124;SDS011;6126;57.908;16.490;2022-09-11T02:57:12;3.40;;;2.70;;
12124;SDS011;6126;57.908;16.490;2022-09-11T02:59:57;3.40;;;3.10;;
12124;SDS011;6126;57.908;16.490;2022-09-11T03:02:27;4.47;;;2.88;;
12124;SDS011;6126;57.908;16.490;2022-09-11T03:04:55;4.05;;;2.58;;
12124;SDS011;6126;57.908;16.490;2022-09-11T03:07:22;3.00;;;2.70;;
12124;SDS011;6126;57.908;16.490;2022-09-11T03:09:49;3.83;;;3.03;;
12124;SDS011;6126;57.908;16.490;2022-09-11T03:12:16;4.45;;;3.40;;
12124;SDS011;6126;57.908;16.490;2022-09-11T03:14:42;4.43;;;3.28;;
12124;SDS011;6126;57.908;16.490;2022-09-11T03:17:08;3.63;;;3.13;;
12124;SDS011;6126;57.908;16.490;2022-09-11T03:19:34;3.05;;;2.75;;
12124;SDS011;6126;57.908;16.490;2022-09-11T03:22:00;3.83;;;3.45;;
12124;SDS011;6126;57.908;16.490;2022-09-11T03:24:27;2.65;;;2.40;;
12124;SDS011;6126;57.908;16.490;2022-09-11T03:26:53;4.63;;;2.78;;
12124;SDS011;6126;57.908;16.490;2022-09-11T03:29:19;6.28;;;3.00;;
12124;SDS011;6126;57.908;16.490;2022-09-11T03:31:45;4.50;;;3.10;;
12124;SDS011;6126;57.908;16.490;2022-09-11T03:34:11;6.28;;;3.05;;
12124;SDS011;6126;57.908;16.490;2022-09-11T03:36:38;4.43;;;3.28;;
12124;SDS011;6126;57.908;16.490;2022-09-11T03:39:04;7.40;;;3.25;;
12124;SDS011;6126;57.908;16.490;2022-09-11T03:41:30;3.45;;;2.85;;
12124;SDS011;6126;57.908;16.490;2022-09-11T03:43:57;3.25;;;2.90;;
12124;SDS011;6126;57.908;16.490;2022-09-11T03:46:23;3.92;;;3.45;;
12124;SDS011;6126;57.908;16.490;2022-09-11T03:48:49;3.10;;;2.65;;
12124;SDS011;6126;57.908;16.490;2022-09-11T03:51:16;3.85;;;3.05;;
12124;SDS011;6126;57.908;16.490;2022-09-11T03:53:42;4.00;;;3.33;;
12124;SDS011;6126;57.908;16.490;2022-09-11T03:56:11;3.80;;;3.00;;
12124;SDS011;6126;57.908;16.490;2022-09-11T03:58:39;3.90;;;3.00;;
12124;SDS011;6126;57.908;16.490;2022-09-11T04:01:13;8.93;;;3.53;;
12124;SDS011;6126;57.908;16.490;2022-09-11T04:03:42;4.20;;;3.25;;
12124;SDS011;6126;57.908;16.490;2022-09-11T04:06:09;3.53;;;3.22;;
12124;SDS011;6126;57.908;16.490;2022-09-11T04:08:34;4.03;;;3.60;;
12124;SDS011;6126;57.908;16.490;2022-09-11T04:11:04;4.25;;;2.97;;
12124;SDS011;6126;57.908;16.490;2022-09-11T04:13:31;3.47;;;2.88;;
12124;SDS011;6126;57.908;16.490;2022-09-11T04:16:02;3.88;;;2.88;;
12124;SDS011;6126;57.908;16.490;2022-09-11T04:18:36;3.83;;;2.90;;
12124;SDS011;6126;57.908;16.490;2022-09-11T04:21:04;5.63;;;2.67;;
12124;SDS011;6126;57.908;16.490;2022-09-11T04:23:32;3.22;;;2.92;;
12124;SDS011;6126;57.908;16.490;2022-09-11T04:25:59;4.25;;;3.00;;
12124;SDS011;6126;57.908;16.490;2022-09-11T04:28:29;3.55;;;3.08;;
12124;SDS011;6126;57.908;16.490;2022-09-11T04:31:00;3.78;;;2.95;;
12124;SDS011;6126;57.908;16.490;2022-09-11T04:33:27;2.92;;;2.65;;
12124;SDS011;6126;57.908;16.490;2022-09-11T04:35:54;6.55;;;3.15;;
12124;SDS011;6126;57.908;16.490;2022-09-11T04:38:20;7.65;;;3.13;;
12124;SDS011;6126;57.908;16.490;2022-09-11T04:40:47;4.60;;;2.65;;
12124;SDS011;6126;57.908;16.490;2022-09-11T04:43:13;4.50;;;3.28;;
12124;SDS011;6126;57.908;16.490;2022-09-11T04:45:41;3.83;;;3.42;;
12124;SDS011;6126;57.908;16.490;2022-09-11T04:48:07;3.78;;;3.30;;
12124;SDS011;6126;57.908;16.490;2022-09-11T04:50:33;5.82;;;3.33;;
12124;SDS011;6126;57.908;16.490;2022-09-11T04:52:59;3.90;;;3.05;;
12124;SDS011;6126;57.908;16.490;2022-09-11T04:55:25;3.40;;;3.08;;
12124;SDS011;6126;57.908;16.490;2022-09-11T04:57:51;4.10;;;2.92;;
12124;SDS011;6126;57.908;16.490;2022-09-11T05:00:18;7.25;;;3.42;;
12124;SDS011;6126;57.908;16.490;2022-09-11T05:02:44;4.43;;;2.83;;
12124;SDS011;6126;57.908;16.490;2022-09-11T05:05:11;5.43;;;3.55;;
12124;SDS011;6126;57.908;16.490;2022-09-11T05:07:37;3.03;;;2.67;;
12124;SDS011;6126;57.908;16.490;2022-09-11T05:10:03;4.50;;;3.13;;
12124;SDS011;6126;57.908;16.490;2022-09-11T05:12:30;4.75;;;3.20;;
12124;SDS011;6126;57.908;16.490;2022-09-11T05:14:56;6.53;;;3.00;;
12124;SDS011;6126;57.908;16.490;2022-09-11T05:17:23;3.65;;;2.85;;
12124;SDS011;6126;57.908;16.490;2022-09-11T05:19:49;3.55;;;3.25;;
12124;SDS011;6126;57.908;16.490;2022-09-11T05:22:14;3.83;;;2.88;;
12124;SDS011;6126;57.908;16.490;2022-09-11T05:24:40;3.63;;;2.95;;
12124;SDS011;6126;57.908;16.490;2022-09-11T05:27:06;4.05;;;3.08;;
12124;SDS011;6126;57.908;16.490;2022-09-11T05:29:33;6.82;;;2.85;;
12124;SDS011;6126;57.908;16.490;2022-09-11T05:31:59;7.95;;;3.20;;
12124;SDS011;6126;57.908;16.490;2022-09-11T05:34:27;2.72;;;2.47;;
12124;SDS011;6126;57.908;16.490;2022-09-11T05:36:53;4.10;;;2.90;;
12124;SDS011;6126;57.908;16.490;2022-09-11T05:39:23;3.85;;;2.67;;
12124;SDS011;6126;57.908;16.490;2022-09-11T05:41:52;3.67;;;2.95;;
12124;SDS011;6126;57.908;16.490;2022-09-11T05:44:21;3.20;;;2.88;;
12124;SDS011;6126;57.908;16.490;2022-09-11T05:46:47;3.20;;;2.90;;
12124;SDS011;6126;57.908;16.490;2022-09-11T05:49:13;3.78;;;3.03;;
12124;SDS011;6126;57.908;16.490;2022-09-11T05:51:39;3.78;;;2.78;;
12124;SDS011;6126;57.908;16.490;2022-09-11T05:54:06;3.28;;;2.92;;
12124;SDS011;6126;57.908;16.490;2022-09-11T05:56:32;4.35;;;3.22;;
12124;SDS011;6126;57.908;16.490;2022-09-11T05:58:58;4.35;;;3.03;;
12124;SDS011;6126;57.908;16.490;2022-09-11T06:01:27;3.72;;;3.42;;
12124;SDS011;6126;57.908;16.490;2022-09-11T06:03:53;2.95;;;2.63;;
12124;SDS011;6126;57.908;16.490;2022-09-11T06:06:20;3.25;;;2.97;;
12124;SDS011;6126;57.908;16.490;2022-09-11T06:08:47;4.55;;;2.72;;
12124;SDS011;6126;57.908;16.490;2022-09-11T06:11:16;4.40;;;3.00;;
12124;SDS011;6126;57.908;16.490;2022-09-11T06:13:45;3.35;;;3.05;;
12124;SDS011;6126;57.908;16.490;2022-09-11T06:16:13;3.40;;;3.00;;
12124;SDS011;6126;57.908;16.490;2022-09-11T06:18:45;4.05;;;2.97;;
12124;SDS011;6126;57.908;16.490;2022-09-11T06:21:16;3.20;;;2.85;;
12124;SDS011;6126;57.908;16.490;2022-09-11T06:23:48;3.45;;;2.83;;
12124;SDS011;6126;57.908;16.490;2022-09-11T06:26:17;3.65;;;2.70;;
12124;SDS011;6126;57.908;16.490;2022-09-11T06:28:48;3.17;;;2.88;;
12124;SDS011;6126;57.908;16.490;2022-09-11T06:31:18;6.82;;;3.05;;
12124;SDS011;6126;57.908;16.490;2022-09-11T06:33:49;4.93;;;3.20;;
12124;SDS011;6126;57.908;16.490;2022-09-11T06:36:17;3.80;;;2.92;;
12124;SDS011;6126;57.908;16.490;2022-09-11T06:38:45;5.25;;;3.00;;
12124;SDS011;6126;57.908;16.490;2022-09-11T06:41:15;3.50;;;2.92;;
12124;SDS011;6126;57.908;16.490;2022-09-11T06:43:41;4.25;;;2.88;;
12124;SDS011;6126;57.908;16.490;2022-09-11T06:46:15;3.65;;;3.28;;
12124;SDS011;6126;57.908;16.490;2022-09-11T06:48:44;3.15;;;2.78;;
12124;SDS011;6126;57.908;16.490;2022-09-11T06:51:14;3.50;;;2.90;;
12124;SDS011;6126;57.908;16.490;2022-09-11T06:53:43;3.17;;;2.67;;
12124;SDS011;6126;57.908;16.490;2022-09-11T06:56:14;8.15;;;3.30;;
12124;SDS011;6126;57.908;16.490;2022-09-11T06:58:42;4.40;;;3.00;;
12124;SDS011;6126;57.908;16.490;2022-09-11T07:01:19;3.28;;;2.75;;
12124;SDS011;6126;57.908;16.490;2022-09-11T07:03:47;3.22;;;2.55;;
12124;SDS011;6126;57.908;16.490;2022-09-11T07:06:19;4.60;;;2.78;;
12124;SDS011;6126;57.908;16.490;2022-09-11T07:11:20;4.93;;;3.22;;
12124;SDS011;6126;57.908;16.490;2022-09-11T07:13:47;2.85;;;2.55;;
12124;SDS011;6126;57.908;16.490;2022-09-11T07:16:13;3.95;;;3.03;;
12124;SDS011;6126;57.908;16.490;2022-09-11T07:18:41;3.60;;;2.90;;
12124;SDS011;6126;57.908;16.490;2022-09-11T07:21:11;3.10;;;2.70;;
12124;SDS011;6126;57.908;16.490;2022-09-11T07:23:40;3.03;;;2.35;;
12124;SDS011;6126;57.908;16.490;2022-09-11T07:26:10;2.83;;;2.63;;
12124;SDS011;6126;57.908;16.490;2022-09-11T07:28:37;3.42;;;3.00;;
12124;SDS011;6126;57.908;16.490;2022-09-11T07:33:40;3.28;;;2.47;;
12124;SDS011;6126;57.908;16.490;2022-09-11T07:36:19;2.92;;;2.35;;
12124;SDS011;6126;57.908;16.490;2022-09-11T07:38:48;5.53;;;2.38;;
12124;SDS011;6126;57.908;16.490;2022-09-11T07:41:15;2.50;;;2.22;;
12124;SDS011;6126;57.908;16.490;2022-09-11T07:43:43;4.93;;;3.25;;
12124;SDS011;6126;57.908;16.490;2022-09-11T07:46:10;3.53;;;2.63;;
12124;SDS011;6126;57.908;16.490;2022-09-11T07:48:37;3.90;;;2.67;;
12124;SDS011;6126;57.908;16.490;2022-09-11T07:51:05;3.03;;;2.60;;
12124;SDS011;6126;57.908;16.490;2022-09-11T07:53:37;7.28;;;2.50;;
12124;SDS011;6126;57.908;16.490;2022-09-11T07:56:13;2.78;;;2.45;;
12124;SDS011;6126;57.908;16.490;2022-09-11T07:58:42;4.05;;;2.47;;
12124;SDS011;6126;57.908;16.490;2022-09-11T08:01:10;3.10;;;2.28;;
12124;SDS011;6126;57.908;16.490;2022-09-11T08:03:40;2.85;;;2.60;;
12124;SDS011;6126;57.908;16.490;2022-09-11T08:06:12;3.40;;;2.63;;
12124;SDS011;6126;57.908;16.490;2022-09-11T08:08:42;4.45;;;2.58;;
12124;SDS011;6126;57.908;16.490;2022-09-11T08:11:10;3.10;;;2.58;;
12124;SDS011;6126;57.908;16.490;2022-09-11T08:13:40;2.60;;;2.40;;
12124;SDS011;6126;57.908;16.490;2022-09-11T08:16:07;4.32;;;2.65;;
12124;SDS011;6126;57.908;16.490;2022-09-11T08:18:34;2.72;;;2.17;;
12124;SDS011;6126;57.908;16.490;2022-09-11T08:21:05;3.15;;;2.20;;
12124;SDS011;6126;57.908;16.490;2022-09-11T08:23:33;3.30;;;2.67;;
12124;SDS011;6126;57.908;16.490;2022-09-11T08:26:04;3.15;;;2.30;;
12124;SDS011;6126;57.908;16.490;2022-09-11T08:28:34;4.45;;;2.63;;
12124;SDS011;6126;57.908;16.490;2022-09-11T08:31:03;2.10;;;1.90;;
12124;SDS011;6126;57.908;16.490;2022-09-11T08:33:30;2.90;;;2.17;;
12124;SDS011;6126;57.908;16.490;2022-09-11T08:36:01;3.05;;;2.35;;
12124;SDS011;6126;57.908;16.490;2022-09-11T08:38:30;9.18;;;2.17;;
12124;SDS011;6126;57.908;16.490;2022-09-11T08:46:53;3.00;;;2.40;;
12124;SDS011;6126;57.908;16.490;2022-09-11T08:49:35;2.50;;;2.30;;
12124;SDS011;6126;57.908;16.490;2022-09-11T08:52:14;2.95;;;2.20;;
12124;SDS011;6126;57.908;16.490;2022-09-11T08:54:41;3.28;;;2.42;;
12124;SDS011;6126;57.908;16.490;2022-09-11T09:00:18;4.00;;;1.90;;
12124;SDS011;6126;57.908;16.490;2022-09-11T09:08:55;2.25;;;1.85;;
12124;SDS011;6126;57.908;16.490;2022-09-11T09:14:57;2.20;;;2.00;;
12124;SDS011;6126;57.908;16.490;2022-09-11T09:17:42;2.22;;;2.03;;
12124;SDS011;6126;57.908;16.490;2022-09-11T09:20:22;2.17;;;1.98;;
12124;SDS011;6126;57.908;16.490;2022-09-11T09:22:58;3.05;;;2.30;;
12124;SDS011;6126;57.908;16.490;2022-09-11T09:25:35;1.80;;;1.70;;
12124;SDS011;6126;57.908;16.490;2022-09-11T09:28:30;2.53;;;2.33;;
12124;SDS011;6126;57.908;16.490;2022-09-11T09:31:09;2.47;;;1.92;;
12124;SDS011;6126;57.908;16.490;2022-09-11T09:36:49;2.63;;;1.83;;
12124;SDS011;6126;57.908;16.490;2022-09-11T09:39:37;3.50;;;2.20;;
12124;SDS011;6126;57.908;16.490;2022-09-11T09:47:51;2.60;;;2.03;;
12124;SDS011;6126;57.908;16.490;2022-09-11T09:56:05;2.78;;;1.80;;
12124;SDS011;6126;57.908;16.490;2022-09-11T09:58:37;4.38;;;1.75;;
12124;SDS011;6126;57.908;16.490;2022-09-11T10:01:57;2.65;;;1.92;;
12124;SDS011;6126;57.908;16.490;2022-09-11T10:06:51;2.30;;;1.77;;
12124;SDS011;6126;57.908;16.490;2022-09-11T10:09:44;2.92;;;1.90;;
12124;SDS011;6126;57.908;16.490;2022-09-11T10:12:19;1.85;;;1.75;;
12124;SDS011;6126;57.908;16.490;2022-09-11T10:14:58;5.13;;;2.35;;
12124;SDS011;6126;57.908;16.490;2022-09-11T10:17:30;2.63;;;1.98;;
12124;SDS011;6126;57.908;16.490;2022-09-11T10:22:51;4.95;;;1.83;;
12124;SDS011;6126;57.908;16.490;2022-09-11T10:25:20;1.98;;;1.83;;
12124;SDS011;6126;57.908;16.490;2022-09-11T10:28:12;2.83;;;2.00;;
12124;SDS011;6126;57.908;16.490;2022-09-11T10:33:25;3.35;;;1.52;;
12124;SDS011;6126;57.908;16.490;2022-09-11T10:36:03;2.10;;;1.90;;
12124;SDS011;6126;57.908;16.490;2022-09-11T10:38:36;4.22;;;2.10;;
12124;SDS011;6126;57.908;16.490;2022-09-11T10:43:43;3.38;;;2.00;;
12124;SDS011;6126;57.908;16.490;2022-09-11T10:51:39;2.50;;;2.20;;
12124;SDS011;6126;57.908;16.490;2022-09-11T10:54:12;2.03;;;1.75;;
12124;SDS011;6126;57.908;16.490;2022-09-11T11:00:04;3.58;;;1.80;;
12124;SDS011;6126;57.908;16.490;2022-09-11T11:02:38;2.53;;;1.63;;
12124;SDS011;6126;57.908;16.490;2022-09-11T11:22:20;3.88;;;2.13;;
12124;SDS011;6126;57.908;16.490;2022-09-11T11:31:44;1.80;;;1.60;;
12124;SDS011;6126;57.908;16.490;2022-09-11T11:34:32;2.03;;;1.80;;
12124;SDS011;6126;57.908;16.490;2022-09-11T11:37:14;2.33;;;2.13;;
12124;SDS011;6126;57.908;16.490;2022-09-11T11:42:51;3.15;;;2.00;;
12124;SDS011;6126;57.908;16.490;2022-09-11T11:45:24;2.85;;;2.10;;
12124;SDS011;6126;57.908;16.490;2022-09-11T11:48:42;2.38;;;2.17;;
12124;SDS011;6126;57.908;16.490;2022-09-11T11:51:16;3.17;;;2.55;;
12124;SDS011;6126;57.908;16.490;2022-09-11T11:56:55;2.72;;;2.47;;
12124;SDS011;6126;57.908;16.490;2022-09-11T11:59:45;2.50;;;2.30;;
12124;SDS011;6126;57.908;16.490;2022-09-11T12:04:56;2.40;;;2.15;;
12124;SDS011;6126;57.908;16.490;2022-09-11T12:07:37;3.92;;;1.80;;
12124;SDS011;6126;57.908;16.490;2022-09-11T12:10:06;2.33;;;2.10;;
12124;SDS011;6126;57.908;16.490;2022-09-11T12:12:47;2.47;;;2.25;;
12124;SDS011;6126;57.908;16.490;2022-09-11T12:15:20;3.20;;;2.10;;
12124;SDS011;6126;57.908;16.490;2022-09-11T12:18:03;2.70;;;2.10;;
12124;SDS011;6126;57.908;16.490;2022-09-11T12:20:47;2.40;;;2.03;;
12124;SDS011;6126;57.908;16.490;2022-09-11T12:28:32;2.65;;;2.08;;
12124;SDS011;6126;57.908;16.490;2022-09-11T12:31:09;2.40;;;2.03;;
12124;SDS011;6126;57.908;16.490;2022-09-11T12:47:17;2.13;;;1.73;;
12124;SDS011;6126;57.908;16.490;2022-09-11T12:50:06;9.48;;;2.17;;
12124;SDS011;6126;57.908;16.490;2022-09-11T12:58:00;1.75;;;1.60;;
12124;SDS011;6126;57.908;16.490;2022-09-11T13:00:44;2.75;;;1.73;;
12124;SDS011;6126;57.908;16.490;2022-09-11T13:03:16;3.45;;;1.85;;
12124;SDS011;6126;57.908;16.490;2022-09-11T13:05:54;3.80;;;1.92;;
12124;SDS011;6126;57.908;16.490;2022-09-11T13:08:24;2.03;;;1.83;;
12124;SDS011;6126;57.908;16.490;2022-09-11T13:14:02;2.60;;;2.30;;
12124;SDS011;6126;57.908;16.490;2022-09-11T13:16:31;4.80;;;2.08;;
12124;SDS011;6126;57.908;16.490;2022-09-11T13:21:37;4.30;;;2.05;;
12124;SDS011;6126;57.908;16.490;2022-09-11T13:24:23;3.17;;;2.08;;
12124;SDS011;6126;57.908;16.490;2022-09-11T13:27:01;4.78;;;2.17;;
12124;SDS011;6126;57.908;16.490;2022-09-11T13:29:34;3.17;;;2.20;;
12124;SDS011;6126;57.908;16.490;2022-09-11T13:32:05;4.15;;;2.10;;
12124;SDS011;6126;57.908;16.490;2022-09-11T13:34:41;4.10;;;2.17;;
12124;SDS011;6126;57.908;16.490;2022-09-11T13:37:12;5.85;;;2.60;;
12124;SDS011;6126;57.908;16.490;2022-09-11T13:39:55;3.65;;;2.20;;
12124;SDS011;6126;57.908;16.490;2022-09-11T13:42:23;4.95;;;2.20;;
12124;SDS011;6126;57.908;16.490;2022-09-11T13:44:50;5.35;;;2.35;;
12124;SDS011;6126;57.908;16.490;2022-09-11T13:47:21;2.63;;;2.38;;
12124;SDS011;6126;57.908;16.490;2022-09-11T13:49:50;5.75;;;2.20;;
12124;SDS011;6126;57.908;16.490;2022-09-11T13:52:21;3.05;;;2.63;;
12124;SDS011;6126;57.908;16.490;2022-09-11T13:54:52;2.92;;;2.08;;
12124;SDS011;6126;57.908;16.490;2022-09-11T13:57:23;2.22;;;2.03;;
12124;SDS011;6126;57.908;16.490;2022-09-11T13:59:55;4.43;;;2.80;;
12124;SDS011;6126;57.908;16.490;2022-09-11T14:05:45;2.65;;;1.98;;
12124;SDS011;6126;57.908;16.490;2022-09-11T14:10:46;4.60;;;2.17;;
12124;SDS011;6126;57.908;16.490;2022-09-11T14:16:06;2.83;;;2.15;;
12124;SDS011;6126;57.908;16.490;2022-09-11T14:18:54;3.60;;;2.05;;
12124;SDS011;6126;57.908;16.490;2022-09-11T14:21:44;2.40;;;2.10;;
12124;SDS011;6126;57.908;16.490;2022-09-11T14:30:00;2.80;;;2.03;;
12124;SDS011;6126;57.908;16.490;2022-09-11T14:32:48;7.38;;;2.80;;
12124;SDS011;6126;57.908;16.490;2022-09-11T14:35:41;2.70;;;2.33;;
12124;SDS011;6126;57.908;16.490;2022-09-11T14:38:10;4.53;;;2.03;;
12124;SDS011;6126;57.908;16.490;2022-09-11T14:40:46;4.20;;;2.33;;
12124;SDS011;6126;57.908;16.490;2022-09-11T14:43:19;2.67;;;2.00;;
12124;SDS011;6126;57.908;16.490;2022-09-11T14:45:55;3.15;;;2.25;;
12124;SDS011;6126;57.908;16.490;2022-09-11T14:48:23;2.70;;;2.22;;
12124;SDS011;6126;57.908;16.490;2022-09-11T14:50:58;3.22;;;2.33;;
12124;SDS011;6126;57.908;16.490;2022-09-11T14:53:28;2.22;;;2.03;;
12124;SDS011;6126;57.908;16.490;2022-09-11T14:55:57;6.35;;;2.10;;
12124;SDS011;6126;57.908;16.490;2022-09-11T14:58:25;2.92;;;2.20;;
12124;SDS011;6126;57.908;16.490;2022-09-11T15:00:52;3.88;;;2.10;;
12124;SDS011;6126;57.908;16.490;2022-09-11T15:03:20;2.88;;;2.20;;
12124;SDS011;6126;57.908;16.490;2022-09-11T15:05:55;2.85;;;1.92;;
12124;SDS011;6126;57.908;16.490;2022-09-11T15:08:23;4.10;;;1.90;;
12124;SDS011;6126;57.908;16.490;2022-09-11T15:10:49;2.53;;;2.33;;
12124;SDS011;6126;57.908;16.490;2022-09-11T15:13:17;2.58;;;2.00;;
12124;SDS011;6126;57.908;16.490;2022-09-11T15:15:44;2.40;;;2.10;;
12124;SDS011;6126;57.908;16.490;2022-09-11T15:18:10;3.85;;;1.90;;
12124;SDS011;6126;57.908;16.490;2022-09-11T15:20:36;2.88;;;2.17;;
12124;SDS011;6126;57.908;16.490;2022-09-11T15:23:03;3.75;;;2.30;;
12124;SDS011;6126;57.908;16.490;2022-09-11T15:25:29;2.40;;;2.15;;
12124;SDS011;6126;57.908;16.490;2022-09-11T15:27:56;3.80;;;2.25;;
12124;SDS011;6126;57.908;16.490;2022-09-11T15:30:22;2.17;;;1.98;;
12124;SDS011;6126;57.908;16.490;2022-09-11T15:32:49;2.50;;;2.30;;
12124;SDS011;6126;57.908;16.490;2022-09-11T15:35:15;4.70;;;1.92;;
12124;SDS011;6126;57.908;16.490;2022-09-11T15:37:47;2.38;;;2.03;;
12124;SDS011;6126;57.908;16.490;2022-09-11T15:40:13;2.55;;;1.80;;
12124;SDS011;6126;57.908;16.490;2022-09-11T15:42:40;2.15;;;1.80;;
12124;SDS011;6126;57.908;16.490;2022-09-11T15:45:06;2.65;;;2.22;;
12124;SDS011;6126;57.908;16.490;2022-09-11T15:47:33;4.07;;;2.13;;
12124;SDS011;6126;57.908;16.490;2022-09-11T15:49:58;2.08;;;1.80;;
12124;SDS011;6126;57.908;16.490;2022-09-11T15:52:24;2.05;;;1.85;;
12124;SDS011;6126;57.908;16.490;2022-09-11T15:54:51;3.92;;;2.10;;
12124;SDS011;6126;57.908;16.490;2022-09-11T15:57:17;2.83;;;2.40;;
12124;SDS011;6126;57.908;16.490;2022-09-11T15:59:43;2.22;;;1.85;;
12124;SDS011;6126;57.908;16.490;2022-09-11T16:02:10;1.70;;;1.60;;
12124;SDS011;6126;57.908;16.490;2022-09-11T16:04:36;2.20;;;1.50;;
12124;SDS011;6126;57.908;16.490;2022-09-11T16:07:02;2.65;;;1.98;;
12124;SDS011;6126;57.908;16.490;2022-09-11T16:09:29;2.20;;;1.90;;
12124;SDS011;6126;57.908;16.490;2022-09-11T16:11:56;3.55;;;1.77;;
12124;SDS011;6126;57.908;16.490;2022-09-11T16:14:27;4.25;;;1.73;;
12124;SDS011;6126;57.908;16.490;2022-09-11T16:16:56;3.13;;;1.92;;
12124;SDS011;6126;57.908;16.490;2022-09-11T16:19:25;2.67;;;1.67;;
12124;SDS011;6126;57.908;16.490;2022-09-11T16:21:54;3.25;;;1.77;;
12124;SDS011;6126;57.908;16.490;2022-09-11T16:24:23;2.13;;;1.70;;
12124;SDS011;6126;57.908;16.490;2022-09-11T16:26:51;3.50;;;1.70;;
12124;SDS011;6126;57.908;16.490;2022-09-11T16:29:21;3.78;;;1.70;;
12124;SDS011;6126;57.908;16.490;2022-09-11T16:31:52;3.22;;;2.05;;
12124;SDS011;6126;57.908;16.490;2022-09-11T16:34:19;1.85;;;1.67;;
12124;SDS011;6126;57.908;16.490;2022-09-11T16:36:45;1.83;;;1.70;;
12124;SDS011;6126;57.908;16.490;2022-09-11T16:39:15;4.65;;;1.83;;
12124;SDS011;6126;57.908;16.490;2022-09-11T16:41:45;5.65;;;1.85;;
12124;SDS011;6126;57.908;16.490;2022-09-11T16:44:12;2.47;;;1.98;;
12124;SDS011;6126;57.908;16.490;2022-09-11T16:46:40;2.28;;;1.77;;
12124;SDS011;6126;57.908;16.490;2022-09-11T16:49:08;2.85;;;2.08;;
12124;SDS011;6126;57.908;16.490;2022-09-11T16:51:43;2.25;;;1.88;;
12124;SDS011;6126;57.908;16.490;2022-09-11T16:54:11;2.80;;;1.95;;
12124;SDS011;6126;57.908;16.490;2022-09-11T16:56:37;2.33;;;1.83;;
12124;SDS011;6126;57.908;16.490;2022-09-11T16:59:03;1.77;;;1.67;;
12124;SDS011;6126;57.908;16.490;2022-09-11T17:01:30;1.98;;;1.48;;
12124;SDS011;6126;57.908;16.490;2022-09-11T17:03:56;2.47;;;1.88;;
12124;SDS011;6126;57.908;16.490;2022-09-11T17:06:23;2.33;;;1.80;;
12124;SDS011;6126;57.908;16.490;2022-09-11T17:08:54;4.03;;;1.85;;
12124;SDS011;6126;57.908;16.490;2022-09-11T17:11:24;1.88;;;1.67;;
12124;SDS011;6126;57.908;16.490;2022-09-11T17:13:51;2.13;;;1.92;;
12124;SDS011;6126;57.908;16.490;2022-09-11T17:16:18;1.60;;;1.50;;
12124;SDS011;6126;57.908;16.490;2022-09-11T17:18:48;2.70;;;1.90;;
12124;SDS011;6126;57.908;16.490;2022-09-11T17:21:18;2.25;;;1.67;;
12124;SDS011;6126;57.908;16.490;2022-09-11T17:23:50;3.95;;;1.90;;
12124;SDS011;6126;57.908;16.490;2022-09-11T17:26:21;1.77;;;1.58;;
12124;SDS011;6126;57.908;16.490;2022-09-11T17:28:48;1.80;;;1.70;;
12124;SDS011;6126;57.908;16.490;2022-09-11T17:31:16;2.00;;;1.67;;
12124;SDS011;6126;57.908;16.490;2022-09-11T17:33:43;3.15;;;1.75;;
12124;SDS011;6126;57.908;16.490;2022-09-11T17:36:10;1.90;;;1.67;;
12124;SDS011;6126;57.908;16.490;2022-09-11T17:38:38;2.90;;;1.65;;
12124;SDS011;6126;57.908;16.490;2022-09-11T17:41:05;2.17;;;1.75;;
12124;SDS011;6126;57.908;16.490;2022-09-11T17:43:33;7.03;;;1.80;;
12124;SDS011;6126;57.908;16.490;2022-09-11T17:46:08;2.17;;;1.73;;
12124;SDS011;6126;57.908;16.490;2022-09-11T17:48:37;2.17;;;1.55;;
12124;SDS011;6126;57.908;16.490;2022-09-11T17:51:08;2.38;;;1.60;;
12124;SDS011;6126;57.908;16.490;2022-09-11T17:53:38;2.58;;;1.85;;
12124;SDS011;6126;57.908;16.490;2022-09-11T17:56:07;1.73;;;1.50;;
12124;SDS011;6126;57.908;16.490;2022-09-11T17:58:39;3.05;;;1.90;;
12124;SDS011;6126;57.908;16.490;2022-09-11T18:01:08;2.92;;;2.00;;
12124;SDS011;6126;57.908;16.490;2022-09-11T18:03:38;2.53;;;2.10;;
12124;SDS011;6126;57.908;16.490;2022-09-11T18:06:13;1.88;;;1.60;;
12124;SDS011;6126;57.908;16.490;2022-09-11T18:08:51;3.67;;;1.90;;
12124;SDS011;6126;57.908;16.490;2022-09-11T18:11:20;2.92;;;1.77;;